createdAt,value
2018-09-26T00:01:12.722Z,47.80
2018-09-26T00:03:44.472Z,48.00
2018-09-26T00:06:12.864Z,48.00
2018-09-26T00:08:41.251Z,48.00
2018-09-26T00:11:09.624Z,47.90
2018-09-26T00:13:38.012Z,47.90
2018-09-26T00:16:06.455Z,47.90
2018-09-26T00:18:34.852Z,47.80
2018-09-26T00:21:03.232Z,48.00
2018-09-26T00:23:32.486Z,47.90
2018-09-26T00:26:00.899Z,47.90
2018-09-26T00:28:29.271Z,47.90
2018-09-26T00:30:57.815Z,47.80
2018-09-26T00:33:26.186Z,47.70
2018-09-26T00:35:54.641Z,47.60
2018-09-26T00:38:22.967Z,47.60
2018-09-26T00:40:51.380Z,47.60
2018-09-26T00:43:19.767Z,47.50
2018-09-26T00:45:48.307Z,47.40
2018-09-26T00:48:16.670Z,47.40
2018-09-26T00:50:45.060Z,47.60
2018-09-26T00:53:13.447Z,47.60
2018-09-26T00:55:41.869Z,47.60
2018-09-26T00:58:10.263Z,47.60
2018-09-26T01:00:38.876Z,47.60
2018-09-26T01:03:07.477Z,47.60
2018-09-26T01:05:36.047Z,47.80
2018-09-26T01:08:04.471Z,47.70
2018-09-26T01:10:32.848Z,47.70
2018-09-26T01:13:01.247Z,47.90
2018-09-26T01:15:29.632Z,47.90
2018-09-26T01:17:58.041Z,47.90
2018-09-26T01:20:26.420Z,48.00
2018-09-26T01:22:54.809Z,47.70
2018-09-26T01:25:23.187Z,47.90
2018-09-26T01:27:51.590Z,47.80
2018-09-26T01:30:19.967Z,47.80
2018-09-26T01:32:48.349Z,47.00
2018-09-26T01:35:16.732Z,47.70
2018-09-26T01:37:45.219Z,47.80
2018-09-26T01:40:13.600Z,47.80
2018-09-26T01:42:41.994Z,47.80
2018-09-26T01:45:10.485Z,47.80
2018-09-26T01:47:38.860Z,48.50
2018-09-26T01:50:07.227Z,47.80
2018-09-26T01:52:35.608Z,47.60
2018-09-26T01:55:03.982Z,47.70
2018-09-26T01:57:32.387Z,47.70
2018-09-26T02:00:00.779Z,47.70
2018-09-26T02:02:29.177Z,47.20
2018-09-26T02:04:57.590Z,47.00
2018-09-26T02:07:25.967Z,46.70
2018-09-26T02:09:54.352Z,46.50
2018-09-26T02:12:22.783Z,46.60
2018-09-26T02:14:51.206Z,46.70
2018-09-26T02:17:19.615Z,46.50
2018-09-26T02:19:48.225Z,46.40
2018-09-26T02:22:16.610Z,46.40
2018-09-26T02:24:45.967Z,46.40
2018-09-26T02:27:14.383Z,46.60
2018-09-26T02:29:42.799Z,46.40
2018-09-26T02:32:11.180Z,46.20
2018-09-26T02:34:39.563Z,46.10
2018-09-26T02:37:09.146Z,46.40
2018-09-26T02:39:38.456Z,46.20
2018-09-26T02:42:06.839Z,45.90
2018-09-26T02:44:36.183Z,45.80
2018-09-26T02:47:04.911Z,46.00
2018-09-26T02:49:33.328Z,45.90
2018-09-26T02:52:01.786Z,45.80
2018-09-26T02:54:30.192Z,46.60
2018-09-26T02:56:58.563Z,45.80
2018-09-26T02:59:27.071Z,46.00
2018-09-26T03:01:55.519Z,45.80
2018-09-26T03:04:23.938Z,45.70
2018-09-26T03:06:52.315Z,45.20
2018-09-26T03:09:20.689Z,46.00
2018-09-26T03:11:49.088Z,45.80
2018-09-26T03:14:18.154Z,45.90
2018-09-26T03:16:46.680Z,45.90
2018-09-26T03:19:15.115Z,45.80
2018-09-26T03:21:43.525Z,45.90
2018-09-26T03:24:11.901Z,45.90
2018-09-26T03:26:40.306Z,45.70
2018-09-26T03:29:08.831Z,45.80
2018-09-26T03:31:37.240Z,45.80
2018-09-26T03:34:05.903Z,45.70
2018-09-26T03:36:34.298Z,45.90
2018-09-26T03:39:02.785Z,45.90
2018-09-26T03:41:31.211Z,45.90
2018-09-26T03:43:59.619Z,45.90
2018-09-26T03:46:28.011Z,45.80
2018-09-26T03:48:56.403Z,46.10
2018-09-26T03:51:24.796Z,45.90
2018-09-26T03:53:53.171Z,45.90
2018-09-26T03:56:21.984Z,46.10
2018-09-26T03:58:50.377Z,46.10
2018-09-26T04:01:18.819Z,46.10
2018-09-26T04:03:47.273Z,46.00
2018-09-26T04:06:15.795Z,46.10
2018-09-26T04:08:44.180Z,45.90
2018-09-26T04:11:12.567Z,45.90
2018-09-26T04:13:40.980Z,46.10
2018-09-26T04:16:09.448Z,46.00
2018-09-26T04:18:37.831Z,46.10
2018-09-26T04:21:06.266Z,45.90
2018-09-26T04:23:34.646Z,46.10
2018-09-26T04:26:03.043Z,46.10
2018-09-26T04:28:31.499Z,46.10
2018-09-26T04:30:59.864Z,46.10
2018-09-26T04:33:28.363Z,46.10
2018-09-26T04:35:56.695Z,46.00
2018-09-26T04:38:25.086Z,46.10
2018-09-26T04:40:53.463Z,46.20
2018-09-26T04:43:21.977Z,46.10
2018-09-26T04:45:50.478Z,46.10
2018-09-26T04:48:18.852Z,46.20
2018-09-26T04:50:47.261Z,46.20
2018-09-26T04:53:15.621Z,46.10
2018-09-26T04:55:44.075Z,46.20
2018-09-26T04:58:12.450Z,46.20
2018-09-26T05:00:40.843Z,46.20
2018-09-26T05:03:09.265Z,46.20
2018-09-26T05:05:37.684Z,46.10
2018-09-26T05:08:07.468Z,46.20
2018-09-26T05:10:35.812Z,46.20
2018-09-26T05:13:04.238Z,46.10
2018-09-26T05:15:32.618Z,46.20
2018-09-26T05:18:01.003Z,46.20
2018-09-26T05:20:29.463Z,46.20
2018-09-26T05:22:57.847Z,46.20
2018-09-26T05:25:26.219Z,46.20
2018-09-26T05:27:54.599Z,46.20
2018-09-26T05:30:23.051Z,46.20
2018-09-26T05:32:51.404Z,46.30
2018-09-26T05:35:19.821Z,46.30
2018-09-26T05:37:48.195Z,46.40
2018-09-26T05:40:16.980Z,46.30
2018-09-26T05:42:45.371Z,46.30
2018-09-26T05:45:13.732Z,46.30
2018-09-26T05:47:42.127Z,46.10
2018-09-26T05:50:10.592Z,46.20
2018-09-26T05:52:38.942Z,46.50
2018-09-26T05:55:07.357Z,46.20
2018-09-26T05:57:35.783Z,46.30
2018-09-26T06:00:04.179Z,46.40
2018-09-26T06:02:32.554Z,46.40
2018-09-26T06:05:00.967Z,46.40
2018-09-26T06:07:29.350Z,46.40
2018-09-26T06:09:57.886Z,46.40
2018-09-26T06:12:26.411Z,46.40
2018-09-26T06:14:54.802Z,46.40
2018-09-26T06:17:23.233Z,46.50
2018-09-26T06:19:51.610Z,46.50
2018-09-26T06:22:20.028Z,46.50
2018-09-26T06:24:48.531Z,46.50
2018-09-26T06:27:16.845Z,46.60
2018-09-26T06:29:45.240Z,46.60
2018-09-26T06:32:13.606Z,46.60
2018-09-26T06:34:41.987Z,46.70
2018-09-26T06:37:10.375Z,46.70
2018-09-26T06:39:38.748Z,46.70
2018-09-26T06:42:07.214Z,46.70
2018-09-26T06:44:35.587Z,46.70
2018-09-26T06:47:03.971Z,46.70
2018-09-26T06:49:32.342Z,46.70
2018-09-26T06:52:00.723Z,46.70
2018-09-26T06:54:29.090Z,46.80
2018-09-26T06:56:57.475Z,46.80
2018-09-26T06:59:25.851Z,46.80
2018-09-26T07:01:54.223Z,46.70
2018-09-26T07:04:22.771Z,46.70
2018-09-26T07:06:51.152Z,46.80
2018-09-26T07:09:19.527Z,46.80
2018-09-26T07:11:47.915Z,46.80
2018-09-26T07:14:16.388Z,46.70
2018-09-26T07:16:45.553Z,46.70
2018-09-26T07:19:14.576Z,46.80
2018-09-26T07:21:42.954Z,46.70
2018-09-26T07:24:11.365Z,46.70
2018-09-26T07:26:39.750Z,46.70
2018-09-26T07:29:08.187Z,46.70
2018-09-26T07:31:36.601Z,46.70
2018-09-26T07:34:04.962Z,46.80
2018-09-26T07:36:33.335Z,46.80
2018-09-26T07:39:01.721Z,46.90
2018-09-26T07:41:30.192Z,46.80
2018-09-26T07:43:58.585Z,46.80
2018-09-26T07:46:26.975Z,46.80
2018-09-26T07:48:55.387Z,46.70
2018-09-26T07:51:23.871Z,46.60
2018-09-26T07:53:52.258Z,46.80
2018-09-26T07:56:20.682Z,46.70
2018-09-26T07:58:49.698Z,46.70
2018-09-26T08:01:18.099Z,46.60
2018-09-26T08:03:46.467Z,46.60
2018-09-26T08:06:14.847Z,46.60
2018-09-26T08:08:43.241Z,46.60
2018-09-26T08:11:11.687Z,46.60
2018-09-26T08:13:40.019Z,46.50
2018-09-26T08:16:09.107Z,46.30
2018-09-26T08:18:37.631Z,46.50
2018-09-26T08:21:05.960Z,46.40
2018-09-26T08:23:34.344Z,46.40
2018-09-26T08:26:02.807Z,46.50
2018-09-26T08:28:31.187Z,46.60
2018-09-26T08:30:59.620Z,46.50
2018-09-26T08:33:28.032Z,46.40
2018-09-26T08:35:56.411Z,46.30
2018-09-26T08:38:24.839Z,46.20
2018-09-26T08:40:53.556Z,46.30
2018-09-26T08:43:21.961Z,46.10
2018-09-26T08:45:50.331Z,46.10
2018-09-26T08:48:18.743Z,46.00
2018-09-26T08:50:47.130Z,46.10
2018-09-26T08:53:15.531Z,46.20
2018-09-26T08:55:43.930Z,46.10
2018-09-26T08:58:12.312Z,46.10
2018-09-26T09:00:40.750Z,46.00
2018-09-26T09:03:09.307Z,46.10
2018-09-26T09:05:37.864Z,46.10
2018-09-26T09:08:06.238Z,46.10
2018-09-26T09:10:34.624Z,46.10
2018-09-26T09:13:02.998Z,46.10
2018-09-26T09:15:31.405Z,46.10
2018-09-26T09:17:59.775Z,46.10
2018-09-26T09:20:28.165Z,46.10
2018-09-26T09:22:56.651Z,46.10
2018-09-26T09:25:25.122Z,45.90
2018-09-26T09:27:53.528Z,46.10
2018-09-26T09:30:22.132Z,46.00
2018-09-26T09:32:50.886Z,46.00
2018-09-26T09:35:19.537Z,45.90
2018-09-26T09:37:47.904Z,46.00
2018-09-26T09:40:16.479Z,46.00
2018-09-26T09:42:45.374Z,46.00
2018-09-26T09:45:13.851Z,45.90
2018-09-26T09:47:42.232Z,46.00
2018-09-26T09:50:10.693Z,46.00
2018-09-26T09:52:39.083Z,46.10
2018-09-26T09:55:07.453Z,46.10
2018-09-26T09:57:35.839Z,46.00
2018-09-26T10:00:04.215Z,46.10
2018-09-26T10:02:32.659Z,46.10
2018-09-26T10:05:01.139Z,46.30
2018-09-26T10:07:29.534Z,46.40
2018-09-26T10:09:58.822Z,46.20
2018-09-26T10:12:27.255Z,46.30
2018-09-26T10:14:55.644Z,46.30
2018-09-26T10:17:24.003Z,46.50
2018-09-26T10:19:52.353Z,46.40
2018-09-26T10:22:20.708Z,46.40
2018-09-26T10:24:49.064Z,46.40
2018-09-26T10:27:17.589Z,46.50
2018-09-26T10:29:45.931Z,46.60
2018-09-26T10:32:14.372Z,46.50
2018-09-26T10:34:42.676Z,47.50
2018-09-26T10:37:11.035Z,46.70
2018-09-26T10:39:39.389Z,46.60
2018-09-26T10:42:07.778Z,46.50
2018-09-26T10:44:36.201Z,46.50
2018-09-26T10:47:04.562Z,46.50
2018-09-26T10:49:32.939Z,46.50
2018-09-26T10:52:01.323Z,46.40
2018-09-26T10:54:29.700Z,46.40
2018-09-26T10:56:58.107Z,46.40
2018-09-26T10:59:26.462Z,46.40
2018-09-26T11:01:55.050Z,46.40
2018-09-26T11:04:23.556Z,46.30
2018-09-26T11:06:52.396Z,46.20
2018-09-26T11:09:20.761Z,46.30
2018-09-26T11:11:49.122Z,46.30
2018-09-26T11:14:17.634Z,46.50
2018-09-26T11:16:45.939Z,46.50
2018-09-26T11:19:14.297Z,46.50
2018-09-26T11:21:42.890Z,46.40
2018-09-26T11:24:11.242Z,46.50
2018-09-26T11:26:39.651Z,46.50
2018-09-26T11:29:08.076Z,46.50
2018-09-26T11:31:36.536Z,46.60
2018-09-26T11:34:04.932Z,46.60
2018-09-26T11:36:33.402Z,46.60
2018-09-26T11:39:01.868Z,46.70
2018-09-26T11:41:30.221Z,47.00
2018-09-26T11:43:58.664Z,46.90
2018-09-26T11:46:27.051Z,47.50
2018-09-26T11:48:55.427Z,46.90
2018-09-26T11:51:23.780Z,46.90
2018-09-26T11:53:52.141Z,46.90
2018-09-26T11:56:20.539Z,47.00
2018-09-26T11:58:48.883Z,46.90
2018-09-26T12:01:17.400Z,47.00
2018-09-26T12:03:45.768Z,47.00
2018-09-26T12:06:14.179Z,46.90
2018-09-26T12:08:42.537Z,47.00
2018-09-26T12:11:10.892Z,47.00
2018-09-26T12:13:39.410Z,47.00
2018-09-26T12:16:08.211Z,47.10
2018-09-26T12:18:36.524Z,47.00
2018-09-26T12:21:04.873Z,47.10
2018-09-26T12:23:33.347Z,47.10
2018-09-26T12:26:01.683Z,47.10
2018-09-26T12:28:30.041Z,47.10
2018-09-26T12:30:58.885Z,47.10
2018-09-26T12:33:27.255Z,47.30
2018-09-26T12:35:55.607Z,47.30
2018-09-26T12:38:23.978Z,47.40
2018-09-26T12:40:52.366Z,47.40
2018-09-26T12:43:20.789Z,47.30
2018-09-26T12:45:49.263Z,47.30
2018-09-26T12:48:17.663Z,47.30
2018-09-26T12:50:45.999Z,47.40
2018-09-26T12:53:14.380Z,47.40
2018-09-26T12:55:42.738Z,47.60
2018-09-26T12:58:11.144Z,47.70
2018-09-26T13:00:41.583Z,47.70
2018-09-26T13:03:09.976Z,47.60
2018-09-26T13:05:38.333Z,47.70
2018-09-26T13:08:06.920Z,47.60
2018-09-26T13:10:35.928Z,47.70
2018-09-26T13:13:06.981Z,47.70
2018-09-26T13:15:35.344Z,47.60
2018-09-26T13:18:03.759Z,47.70
2018-09-26T13:20:32.127Z,47.90
2018-09-26T13:23:01.147Z,48.00
2018-09-26T13:25:29.551Z,48.00
2018-09-26T13:27:58.353Z,48.20
2018-09-26T13:30:28.838Z,48.00
2018-09-26T13:32:57.236Z,48.10
2018-09-26T13:35:25.614Z,48.00
2018-09-26T13:37:53.967Z,48.00
2018-09-26T13:40:22.395Z,47.90
2018-09-26T13:42:50.704Z,47.90
2018-09-26T13:45:19.196Z,47.90
2018-09-26T13:47:47.590Z,47.90
2018-09-26T13:50:16.055Z,47.90
2018-09-26T13:52:44.403Z,48.00
2018-09-26T13:55:13.188Z,47.90
2018-09-26T13:57:41.544Z,48.00
2018-09-26T14:00:09.962Z,48.00
2018-09-26T14:02:38.459Z,48.00
2018-09-26T14:05:07.038Z,48.00
2018-09-26T14:07:35.407Z,48.00
2018-09-26T14:10:03.769Z,48.00
2018-09-26T14:12:32.244Z,48.10
2018-09-26T14:15:00.509Z,48.00
2018-09-26T14:17:28.989Z,47.90
2018-09-26T14:19:57.276Z,48.10
2018-09-26T14:22:25.677Z,48.00
2018-09-26T14:24:57.913Z,47.90
2018-09-26T14:27:26.486Z,47.80
2018-09-26T14:29:54.870Z,48.00
2018-09-26T14:32:23.257Z,48.00
2018-09-26T14:34:51.975Z,48.00
2018-09-26T14:37:20.368Z,47.80
2018-09-26T14:39:48.749Z,47.80
2018-09-26T14:42:17.103Z,47.80
2018-09-26T14:44:45.535Z,47.70
2018-09-26T14:47:13.892Z,47.70
2018-09-26T14:49:42.444Z,47.60
2018-09-26T14:52:11.276Z,47.60
2018-09-26T14:54:39.808Z,48.10
2018-09-26T14:57:08.177Z,47.60
2018-09-26T14:59:36.540Z,47.80
2018-09-26T15:02:04.911Z,47.80
2018-09-26T15:04:33.317Z,47.80
2018-09-26T15:07:02.703Z,47.80
2018-09-26T15:09:31.116Z,47.70
2018-09-26T15:11:59.646Z,48.30
2018-09-26T15:14:28.599Z,47.70
2018-09-26T15:16:57.104Z,47.60
2018-09-26T15:19:25.496Z,47.60
2018-09-26T15:21:54.373Z,47.60
2018-09-26T15:24:22.943Z,47.70
2018-09-26T15:26:51.368Z,48.00
2018-09-26T15:29:20.077Z,47.80
2018-09-26T15:31:48.475Z,48.10
2018-09-26T15:34:17.343Z,48.90
2018-09-26T15:36:45.901Z,48.10
2018-09-26T15:39:14.389Z,47.70
2018-09-26T15:41:42.935Z,47.90
2018-09-26T15:44:11.313Z,47.90
2018-09-26T15:46:39.705Z,47.90
2018-09-26T15:49:08.055Z,47.80
2018-09-26T15:51:37.018Z,47.80
2018-09-26T15:54:05.436Z,47.70
2018-09-26T15:56:33.937Z,47.80
2018-09-26T15:59:04.015Z,47.70
2018-09-26T16:01:32.615Z,48.00
2018-09-26T16:04:00.967Z,48.30
2018-09-26T16:06:29.792Z,47.80
2018-09-26T16:08:58.170Z,47.60
2018-09-26T16:11:26.606Z,47.60
2018-09-26T16:13:55.010Z,47.60
2018-09-26T16:16:23.603Z,47.70
2018-09-26T16:18:51.908Z,47.70
2018-09-26T16:21:20.279Z,47.60
2018-09-26T16:23:48.707Z,47.70
2018-09-26T16:26:17.101Z,47.60
2018-09-26T16:28:45.539Z,47.60
2018-09-26T16:31:13.896Z,47.60
2018-09-26T16:33:42.259Z,47.40
2018-09-26T16:36:10.671Z,47.80
2018-09-26T16:38:39.093Z,47.60
2018-09-26T16:41:07.471Z,47.60
2018-09-26T16:43:35.843Z,47.60
2018-09-26T16:46:04.694Z,47.60
2018-09-26T16:48:33.099Z,47.50
2018-09-26T16:51:01.539Z,47.50
2018-09-26T16:53:29.970Z,47.60
2018-09-26T16:55:58.783Z,47.70
2018-09-26T16:58:27.281Z,47.80
2018-09-26T17:00:55.667Z,47.80
2018-09-26T17:03:24.056Z,47.80
2018-09-26T17:05:52.449Z,47.70
2018-09-26T17:08:20.913Z,48.10
2018-09-26T17:10:49.327Z,47.90
2018-09-26T17:13:17.901Z,48.00
2018-09-26T17:15:46.401Z,48.00
2018-09-26T17:18:14.915Z,48.50
2018-09-26T17:20:43.357Z,48.60
2018-09-26T17:23:11.748Z,48.90
2018-09-26T17:25:40.079Z,48.80
2018-09-26T17:28:08.534Z,49.00
2018-09-26T17:30:36.942Z,49.10
2018-09-26T17:33:05.498Z,49.10
2018-09-26T17:35:33.875Z,49.30
2018-09-26T17:38:02.247Z,49.60
2018-09-26T17:40:30.703Z,49.80
2018-09-26T17:42:59.050Z,49.80
2018-09-26T17:45:27.486Z,49.80
2018-09-26T17:47:55.911Z,49.80
2018-09-26T17:50:24.287Z,49.80
2018-09-26T17:52:52.707Z,49.90
2018-09-26T17:55:21.087Z,49.90
2018-09-26T17:57:49.435Z,49.60
2018-09-26T18:00:17.843Z,49.70
2018-09-26T18:02:46.174Z,49.90
2018-09-26T18:05:14.531Z,49.90
2018-09-26T18:07:42.900Z,49.70
2018-09-26T18:10:11.667Z,49.70
2018-09-26T18:12:40.643Z,49.90
2018-09-26T18:15:09.066Z,49.80
2018-09-26T18:17:37.424Z,49.60
2018-09-26T18:20:05.785Z,49.60
2018-09-26T18:22:34.288Z,49.70
2018-09-26T18:25:02.647Z,49.70
2018-09-26T18:27:31.111Z,49.80
2018-09-26T18:29:59.457Z,49.80
2018-09-26T18:32:28.376Z,49.70
2018-09-26T18:34:56.897Z,49.90
2018-09-26T18:37:25.279Z,50.00
2018-09-26T18:39:53.695Z,49.90
2018-09-26T18:42:22.207Z,50.10
2018-09-26T18:44:50.609Z,50.00
2018-09-26T18:47:18.934Z,50.00
2018-09-26T18:49:47.291Z,50.10
2018-09-26T18:52:15.647Z,50.10
2018-09-26T18:54:44.042Z,50.30
2018-09-26T18:57:12.687Z,50.30
2018-09-26T18:59:41.020Z,50.20
2018-09-26T19:02:09.401Z,50.00
2018-09-26T19:04:37.839Z,50.00
2018-09-26T19:07:06.147Z,49.80
2018-09-26T19:09:34.526Z,49.70
2018-09-26T19:12:02.945Z,49.60
2018-09-26T19:14:31.259Z,49.60
2018-09-26T19:16:59.639Z,49.50
2018-09-26T19:19:28.248Z,49.60
2018-09-26T19:21:57.541Z,49.60
2018-09-26T19:24:27.596Z,49.60
2018-09-26T19:26:56.201Z,49.50
2018-09-26T19:29:24.736Z,49.40
2018-09-26T19:31:53.097Z,49.50
2018-09-26T19:34:21.492Z,49.50
2018-09-26T19:36:49.867Z,49.30
2018-09-26T19:39:18.295Z,49.50
2018-09-26T19:41:46.721Z,49.50
2018-09-26T19:44:15.140Z,49.50
2018-09-26T19:46:43.685Z,49.50
2018-09-26T19:49:12.122Z,49.50
2018-09-26T19:51:40.544Z,49.50
2018-09-26T19:54:08.922Z,49.60
2018-09-26T19:56:37.372Z,49.60
2018-09-26T19:59:05.729Z,50.10
2018-09-26T20:01:34.119Z,49.60
2018-09-26T20:04:02.572Z,49.50
2018-09-26T20:06:31.300Z,49.70
2018-09-26T20:08:59.659Z,49.80
2018-09-26T20:11:28.105Z,49.80
2018-09-26T20:13:57.504Z,49.60
2018-09-26T20:16:25.871Z,49.70
2018-09-26T20:18:54.318Z,49.80
2018-09-26T20:21:22.753Z,50.50
2018-09-26T20:23:51.256Z,49.90
2018-09-26T20:26:19.756Z,49.90
2018-09-26T20:28:48.319Z,49.80
2018-09-26T20:31:16.695Z,49.80
2018-09-26T20:33:45.150Z,49.80
2018-09-26T20:36:13.539Z,50.00
2018-09-26T20:38:42.017Z,49.90
2018-09-26T20:41:10.463Z,49.70
2018-09-26T20:43:38.862Z,49.60
2018-09-26T20:46:07.833Z,49.60
2018-09-26T20:48:37.165Z,49.60
2018-09-26T20:51:05.540Z,49.70
2018-09-26T20:53:33.926Z,49.70
2018-09-26T20:56:02.296Z,49.70
2018-09-26T20:58:30.730Z,49.80
2018-09-26T21:00:59.102Z,50.00
2018-09-26T21:03:27.538Z,50.10
2018-09-26T21:05:55.911Z,50.20
2018-09-26T21:08:24.267Z,50.30
2018-09-26T21:10:52.626Z,50.40
2018-09-26T21:13:20.995Z,50.40
2018-09-26T21:15:49.439Z,50.40
2018-09-26T21:18:17.809Z,50.20
2018-09-26T21:20:46.203Z,50.90
2018-09-26T21:23:14.639Z,50.20
2018-09-26T21:25:43.101Z,50.60
2018-09-26T21:28:11.463Z,50.60
2018-09-26T21:30:39.833Z,51.20
2018-09-26T21:33:08.499Z,50.50
2018-09-26T21:35:36.982Z,50.30
2018-09-26T21:38:05.330Z,50.50
2018-09-26T21:40:34.277Z,50.60
2018-09-26T21:43:02.667Z,50.40
2018-09-26T21:45:31.136Z,50.60
2018-09-26T21:47:59.479Z,50.60
2018-09-26T21:50:27.847Z,50.60
2018-09-26T21:52:56.204Z,50.80
2018-09-26T21:55:25.278Z,50.90
2018-09-26T21:57:53.628Z,50.70
2018-09-26T22:00:22.013Z,50.80
2018-09-26T22:02:50.292Z,50.90
2018-09-26T22:05:18.567Z,50.90
2018-09-26T22:07:46.910Z,50.90
2018-09-26T22:10:15.181Z,50.80
2018-09-26T22:12:43.521Z,51.10
2018-09-26T22:15:17.212Z,50.80
2018-09-26T22:17:45.562Z,50.80
2018-09-26T22:20:13.923Z,50.60
2018-09-26T22:22:42.215Z,50.90
2018-09-26T22:25:10.485Z,51.20
2018-09-26T22:27:38.875Z,51.00
2018-09-26T22:30:07.301Z,51.20
2018-09-26T22:32:35.616Z,51.00
2018-09-26T22:35:03.880Z,51.10
2018-09-26T22:37:32.168Z,50.90
2018-09-26T22:40:00.459Z,51.00
2018-09-26T22:42:28.748Z,51.40
2018-09-26T22:44:57.815Z,50.90
2018-09-26T22:47:26.111Z,50.80
2018-09-26T22:49:54.383Z,50.80
2018-09-26T22:52:22.651Z,50.80
2018-09-26T22:54:50.929Z,50.70
2018-09-26T22:57:19.198Z,50.50
2018-09-26T22:59:47.451Z,50.50
2018-09-26T23:02:15.750Z,51.20
2018-09-26T23:04:44.031Z,50.80
2018-09-26T23:07:12.669Z,51.30
2018-09-26T23:09:40.964Z,50.80
2018-09-26T23:12:09.227Z,50.70
2018-09-26T23:14:37.495Z,50.70
2018-09-26T23:17:05.772Z,50.80
2018-09-26T23:19:34.048Z,50.70
2018-09-26T23:22:02.403Z,50.80
2018-09-26T23:24:30.767Z,50.80
2018-09-26T23:26:59.082Z,50.80
2018-09-26T23:29:27.419Z,51.00
2018-09-26T23:31:55.822Z,50.90
2018-09-26T23:34:24.088Z,51.10
2018-09-26T23:36:52.471Z,51.20
2018-09-26T23:39:20.728Z,51.30
2018-09-26T23:41:49.119Z,51.10
2018-09-26T23:44:17.400Z,51.30
2018-09-26T23:46:45.680Z,51.10
2018-09-26T23:49:13.966Z,50.90
2018-09-26T23:51:42.585Z,50.70
2018-09-26T23:54:10.881Z,50.80
2018-09-26T23:56:39.154Z,50.90
2018-09-26T23:59:07.448Z,51.10
